createdAt,value
2023-03-29T00:00:09.322Z,507.3
2023-03-29T00:01:36.535Z,507.8
2023-03-29T00:02:39.061Z,507.6
2023-03-29T00:03:41.450Z,507.7
2023-03-29T00:04:43.693Z,507.4
2023-03-29T00:05:45.627Z,507.9
2023-03-29T00:06:47.456Z,508.2
2023-03-29T00:07:49.302Z,507.9
2023-03-29T00:08:51.152Z,508.1
2023-03-29T00:09:53.126Z,507.7
2023-03-29T00:10:55.057Z,508.1
2023-03-29T00:11:56.918Z,507.6
2023-03-29T00:12:58.759Z,508
2023-03-29T00:14:00.821Z,507.7
2023-03-29T00:15:02.761Z,507.8
2023-03-29T00:16:04.619Z,508
2023-03-29T00:17:07.158Z,507.9
2023-03-29T00:18:09.366Z,507.9
2023-03-29T00:19:11.187Z,507.9
2023-03-29T00:20:13.049Z,508
2023-03-29T00:21:14.893Z,507.9
2023-03-29T00:22:16.746Z,508.4
2023-03-29T00:23:18.594Z,508.3
2023-03-29T00:24:20.435Z,508.4
2023-03-29T00:25:22.844Z,508.4
2023-03-29T00:26:24.646Z,508.1
2023-03-29T00:27:26.541Z,508.9
2023-03-29T00:28:28.363Z,509.1
2023-03-29T00:29:30.204Z,509.4
2023-03-29T00:30:32.056Z,509.2
2023-03-29T00:31:34.062Z,508.8
2023-03-29T00:32:36.308Z,509.2
2023-03-29T00:33:38.112Z,509.1
2023-03-29T00:34:39.959Z,509.4
2023-03-29T00:35:41.830Z,509.3
2023-03-29T00:36:43.667Z,509
2023-03-29T00:37:45.517Z,509.7
2023-03-29T00:38:47.382Z,509.1
2023-03-29T00:39:49.367Z,509.2
2023-03-29T00:40:51.310Z,509.1
2023-03-29T00:41:53.324Z,508.9
2023-03-29T00:42:55.278Z,508.4
2023-03-29T00:43:57.233Z,509
2023-03-29T00:44:59.020Z,508.8
2023-03-29T00:46:01.086Z,508.7
2023-03-29T00:47:02.980Z,508.7
2023-03-29T00:48:04.984Z,508.9
2023-03-29T00:49:07.004Z,508.5
2023-03-29T00:50:08.842Z,508.6
2023-03-29T00:51:10.798Z,508.7
2023-03-29T00:52:12.646Z,509.1
2023-03-29T00:53:14.491Z,508.9
2023-03-29T00:54:16.451Z,508.8
2023-03-29T00:55:18.293Z,508.7
2023-03-29T00:56:20.275Z,509
2023-03-29T00:57:22.473Z,508.9
2023-03-29T00:58:24.469Z,508.9
2023-03-29T00:59:26.305Z,509.1
2023-03-29T01:00:28.168Z,509.3
2023-03-29T01:01:30.139Z,509.3
2023-03-29T01:02:32.324Z,509.6
2023-03-29T01:03:34.663Z,509.3
2023-03-29T01:04:36.726Z,509.1
2023-03-29T01:05:38.531Z,509.4
2023-03-29T01:06:40.405Z,508.7
2023-03-29T01:07:42.130Z,508.7
2023-03-29T01:08:43.989Z,508.8
2023-03-29T01:09:45.952Z,508.5
2023-03-29T01:10:47.796Z,508.5
2023-03-29T01:11:49.659Z,508.9
2023-03-29T01:12:51.701Z,508.4
2023-03-29T01:13:53.545Z,508.7
2023-03-29T01:14:55.390Z,508.4
2023-03-29T01:15:57.555Z,508.8
2023-03-29T01:16:59.353Z,508.5
2023-03-29T01:18:01.607Z,508.5
2023-03-29T01:19:03.507Z,508.4
2023-03-29T01:20:05.368Z,507.7
2023-03-29T01:21:07.322Z,508.2
2023-03-29T01:22:09.169Z,508.3
2023-03-29T01:23:11.120Z,508
2023-03-29T01:24:12.962Z,507.4
2023-03-29T01:25:14.935Z,508
2023-03-29T01:26:16.763Z,507.7
2023-03-29T01:27:18.754Z,508
2023-03-29T01:28:20.568Z,507.8
2023-03-29T01:29:22.422Z,507.8
2023-03-29T01:30:24.355Z,508.2
2023-03-29T01:31:26.343Z,508.1
2023-03-29T01:32:28.395Z,508.2
2023-03-29T01:33:30.601Z,508.3
2023-03-29T01:34:32.501Z,508.2
2023-03-29T01:35:34.473Z,508.3
2023-03-29T01:36:36.298Z,508
2023-03-29T01:37:38.160Z,508.1
2023-03-29T01:38:39.998Z,508
2023-03-29T01:39:41.844Z,507.9
2023-03-29T01:40:43.697Z,508
2023-03-29T01:41:45.651Z,508
2023-03-29T01:42:47.517Z,507.9
2023-03-29T01:43:49.357Z,508
2023-03-29T01:44:51.094Z,508.1
2023-03-29T01:45:53.152Z,507.7
2023-03-29T01:46:55.302Z,508
2023-03-29T01:47:57.271Z,507.8
2023-03-29T01:48:59.215Z,507.8
2023-03-29T01:50:01.071Z,507.8
2023-03-29T01:51:04.266Z,507.7
2023-03-29T01:52:06.305Z,508.1
2023-03-29T01:53:08.460Z,508.1
2023-03-29T01:54:10.299Z,508.1
2023-03-29T01:55:12.569Z,508.4
2023-03-29T01:56:14.512Z,507.8
2023-03-29T01:57:16.511Z,507.7
2023-03-29T01:58:18.451Z,508
2023-03-29T01:59:20.276Z,508.4
2023-03-29T02:00:22.115Z,507.8
2023-03-29T02:01:24.094Z,507.9
2023-03-29T02:02:26.425Z,507.8
2023-03-29T02:03:28.770Z,507.6
2023-03-29T02:04:30.650Z,507.6
2023-03-29T02:05:32.494Z,507.2
2023-03-29T02:06:34.455Z,507.3
2023-03-29T02:07:36.297Z,507.6
2023-03-29T02:08:38.043Z,507.7
2023-03-29T02:09:39.900Z,507.2
2023-03-29T02:10:41.852Z,507.5
2023-03-29T02:11:43.707Z,507.1
2023-03-29T02:12:45.478Z,507.2
2023-03-29T02:13:47.321Z,507.8
2023-03-29T02:14:49.142Z,507.1
2023-03-29T02:15:51.228Z,507
2023-03-29T02:16:53.250Z,506.7
2023-03-29T02:17:55.444Z,506.5
2023-03-29T02:18:57.259Z,506.9
2023-03-29T02:19:59.114Z,506.8
2023-03-29T02:21:02.164Z,506.6
2023-03-29T02:22:04.255Z,506.8
2023-03-29T02:23:06.106Z,506.5
2023-03-29T02:24:08.073Z,507.1
2023-03-29T02:25:10.009Z,506.8
2023-03-29T02:26:11.948Z,506.5
2023-03-29T02:27:13.899Z,506.2
2023-03-29T02:28:15.758Z,506.7
2023-03-29T02:29:17.732Z,506.4
2023-03-29T02:30:19.561Z,506.1
2023-03-29T02:31:21.518Z,506.4
2023-03-29T02:32:23.414Z,506
2023-03-29T02:33:25.112Z,505.9
2023-03-29T02:34:27.060Z,505.7
2023-03-29T02:35:28.936Z,505.8
2023-03-29T02:36:30.868Z,505.7
2023-03-29T02:37:32.705Z,505.7
2023-03-29T02:38:34.569Z,506.1
2023-03-29T02:39:36.610Z,505.9
2023-03-29T02:40:38.464Z,505.8
2023-03-29T02:41:40.420Z,505.8
2023-03-29T02:42:42.277Z,505.7
2023-03-29T02:43:44.125Z,506.1
2023-03-29T02:44:46.001Z,505.9
2023-03-29T02:45:47.919Z,505.6
2023-03-29T02:46:49.921Z,506
2023-03-29T02:47:52.249Z,506.1
2023-03-29T02:48:54.090Z,505.8
2023-03-29T02:49:55.941Z,505.6
2023-03-29T02:50:58.293Z,505.3
2023-03-29T02:52:00.253Z,505.5
2023-03-29T02:53:02.211Z,505
2023-03-29T02:54:03.980Z,504.7
2023-03-29T02:55:05.806Z,504.9
2023-03-29T02:56:07.657Z,505
2023-03-29T02:57:09.725Z,504.4
2023-03-29T02:58:11.566Z,505.1
2023-03-29T02:59:15.077Z,504.8
2023-03-29T03:00:17.019Z,504.5
2023-03-29T03:01:18.973Z,504.5
2023-03-29T03:02:21.204Z,504.6
2023-03-29T03:03:23.621Z,504.4
2023-03-29T03:04:25.626Z,504.5
2023-03-29T03:05:27.278Z,504.8
2023-03-29T03:06:29.135Z,504.8
2023-03-29T03:07:30.887Z,504.7
2023-03-29T03:08:32.917Z,504.5
2023-03-29T03:09:34.877Z,504.2
2023-03-29T03:10:36.830Z,504
2023-03-29T03:11:38.634Z,504.3
2023-03-29T03:12:40.532Z,503.6
2023-03-29T03:13:42.488Z,503.6
2023-03-29T03:14:44.395Z,504.1
2023-03-29T03:15:46.322Z,503.9
2023-03-29T03:16:48.559Z,503.1
2023-03-29T03:17:50.756Z,503.2
2023-03-29T03:18:52.657Z,504.1
2023-03-29T03:19:54.508Z,503.7
2023-03-29T03:20:56.365Z,503.6
2023-03-29T03:21:58.125Z,503.1
2023-03-29T03:22:59.961Z,503.2
2023-03-29T03:24:01.806Z,503.2
2023-03-29T03:25:03.585Z,503.4
2023-03-29T03:26:05.431Z,503.1
2023-03-29T03:27:07.249Z,503.4
2023-03-29T03:28:09.202Z,502.8
2023-03-29T03:29:11.055Z,502.4
2023-03-29T03:30:12.897Z,503.1
2023-03-29T03:31:15.081Z,503.2
2023-03-29T03:32:17.114Z,503.2
2023-03-29T03:33:18.965Z,502.7
2023-03-29T03:34:20.742Z,502.3
2023-03-29T03:35:22.565Z,502.9
2023-03-29T03:36:24.412Z,502.6
2023-03-29T03:37:26.263Z,502.1
2023-03-29T03:38:28.111Z,502.6
2023-03-29T03:39:30.063Z,502.9
2023-03-29T03:40:31.802Z,502.5
2023-03-29T03:41:33.554Z,502.2
2023-03-29T03:42:35.319Z,502.1
2023-03-29T03:43:37.250Z,502.9
2023-03-29T03:44:39.096Z,502.8
2023-03-29T03:45:40.984Z,502.8
2023-03-29T03:46:42.865Z,502.1
2023-03-29T03:47:45.074Z,502.6
2023-03-29T03:48:46.913Z,502.5
2023-03-29T03:49:48.770Z,503.3
2023-03-29T03:50:50.617Z,502.5
2023-03-29T03:51:53.395Z,502.4
2023-03-29T03:52:55.234Z,502.3
2023-03-29T03:53:57.191Z,501.8
2023-03-29T03:54:59.040Z,501.4
2023-03-29T03:56:00.909Z,501.6
2023-03-29T03:57:03.073Z,502.1
2023-03-29T03:58:04.900Z,501.2
2023-03-29T03:59:06.842Z,501.6
2023-03-29T04:00:08.692Z,501.4
2023-03-29T04:01:10.641Z,500.8
2023-03-29T04:02:12.565Z,501.3
2023-03-29T04:03:15.065Z,501.4
2023-03-29T04:04:17.466Z,500.7
2023-03-29T04:05:19.363Z,501.2
2023-03-29T04:06:21.335Z,500.8
2023-03-29T04:07:23.200Z,500.8
2023-03-29T04:08:24.929Z,500.8
2023-03-29T04:09:26.878Z,500.5
2023-03-29T04:10:28.643Z,500.6
2023-03-29T04:11:30.494Z,500.3
2023-03-29T04:12:32.434Z,500
2023-03-29T04:13:34.232Z,500.5
2023-03-29T04:14:36.134Z,500
2023-03-29T04:15:38.028Z,499.9
2023-03-29T04:16:39.933Z,499.5
2023-03-29T04:17:42.439Z,499.8
2023-03-29T04:18:45.148Z,499.4
2023-03-29T04:19:47.126Z,499.5
2023-03-29T04:20:48.971Z,499.6
2023-03-29T04:21:50.819Z,499.2
2023-03-29T04:22:52.772Z,499.6
2023-03-29T04:23:54.630Z,499.1
2023-03-29T04:24:56.544Z,499
2023-03-29T04:25:58.436Z,499.5
2023-03-29T04:27:00.384Z,498.8
2023-03-29T04:28:02.228Z,499.2
2023-03-29T04:29:04.086Z,499.2
2023-03-29T04:30:05.924Z,499
2023-03-29T04:31:07.997Z,499.5
2023-03-29T04:32:09.830Z,499
2023-03-29T04:33:11.954Z,499.2
2023-03-29T04:34:13.953Z,499.4
2023-03-29T04:35:15.800Z,499.2
2023-03-29T04:36:17.908Z,498.8
2023-03-29T04:37:19.797Z,498.6
2023-03-29T04:38:21.591Z,498.6
2023-03-29T04:39:23.407Z,498.6
2023-03-29T04:40:25.251Z,498.4
2023-03-29T04:41:27.314Z,498.5
2023-03-29T04:42:29.163Z,498.1
2023-03-29T04:43:31.121Z,498.4
2023-03-29T04:44:33.032Z,498.1
2023-03-29T04:45:34.913Z,498.1
2023-03-29T04:46:37.068Z,497.8
2023-03-29T04:47:39.049Z,497.9
2023-03-29T04:48:41.007Z,497.6
2023-03-29T04:49:42.936Z,497.7
2023-03-29T04:50:44.890Z,498
2023-03-29T04:51:46.743Z,497.7
2023-03-29T04:52:48.582Z,496.8
2023-03-29T04:53:50.464Z,497.7
2023-03-29T04:54:52.293Z,497.1
2023-03-29T04:55:54.228Z,497.8
2023-03-29T04:56:56.249Z,497.2
2023-03-29T04:57:58.045Z,497.3
2023-03-29T04:58:59.888Z,496.9
2023-03-29T05:00:01.778Z,497.1
2023-03-29T05:01:04.384Z,496.6
2023-03-29T05:02:06.463Z,496.8
2023-03-29T05:03:08.592Z,496.8
2023-03-29T05:04:13.589Z,496
2023-03-29T05:05:15.519Z,496.4
2023-03-29T05:06:17.445Z,495.9
2023-03-29T05:07:19.177Z,495.8
2023-03-29T05:08:21.045Z,495.8
2023-03-29T05:09:22.999Z,495.2
2023-03-29T05:10:24.941Z,495.7
2023-03-29T05:11:26.801Z,495.1
2023-03-29T05:12:28.641Z,495.3
2023-03-29T05:13:30.542Z,494.3
2023-03-29T05:14:32.252Z,494.7
2023-03-29T05:15:34.093Z,494.2
2023-03-29T05:16:36.137Z,494.3
2023-03-29T05:17:38.362Z,494.3
2023-03-29T05:18:40.247Z,494
2023-03-29T05:19:42.143Z,494
2023-03-29T05:20:44.268Z,494.3
2023-03-29T05:21:46.419Z,493.8
2023-03-29T05:22:48.271Z,493.6
2023-03-29T05:23:50.122Z,492.6
2023-03-29T05:24:51.972Z,493.3
2023-03-29T05:25:53.831Z,492.9
2023-03-29T05:26:55.666Z,493.4
2023-03-29T05:27:57.463Z,493
2023-03-29T05:28:59.361Z,492.5
2023-03-29T05:30:01.170Z,492.3
2023-03-29T05:31:04.055Z,492.6
2023-03-29T05:32:06.287Z,491.7
2023-03-29T05:33:08.436Z,492.2
2023-03-29T05:34:10.273Z,491.7
2023-03-29T05:35:12.130Z,491.3
2023-03-29T05:36:14.392Z,491.4
2023-03-29T05:37:16.216Z,490.8
2023-03-29T05:38:18.754Z,491.3
2023-03-29T05:39:20.602Z,491.5
2023-03-29T05:40:22.277Z,491.4
2023-03-29T05:41:24.035Z,491.1
2023-03-29T05:42:25.883Z,491.1
2023-03-29T05:43:27.820Z,491.1
2023-03-29T05:44:30.074Z,491.3
2023-03-29T05:45:31.976Z,491.1
2023-03-29T05:46:33.908Z,490.9
2023-03-29T05:47:35.835Z,490.7
2023-03-29T05:48:37.635Z,490.8
2023-03-29T05:49:39.459Z,490.7
2023-03-29T05:50:42.032Z,490.7
2023-03-29T05:51:45.188Z,490.7
2023-03-29T05:52:47.041Z,490.1
2023-03-29T05:53:49.096Z,490.6
2023-03-29T05:54:50.941Z,489.9
2023-03-29T05:55:52.686Z,490.2
2023-03-29T05:56:54.780Z,490
2023-03-29T05:57:56.606Z,490.2
2023-03-29T05:58:58.572Z,489.8
2023-03-29T06:00:00.502Z,489.9
2023-03-29T06:01:03.248Z,489.8
2023-03-29T06:02:05.649Z,490
2023-03-29T06:03:22.594Z,489.8
2023-03-29T06:04:25.155Z,489.7
2023-03-29T06:05:27.168Z,489.8
2023-03-29T06:06:29.036Z,489.7
2023-03-29T06:07:30.971Z,490.1
2023-03-29T06:08:32.813Z,490.2
2023-03-29T06:09:34.778Z,490.7
2023-03-29T06:10:36.834Z,490.3
2023-03-29T06:11:38.774Z,490.2
2023-03-29T06:12:40.657Z,490.2
2023-03-29T06:13:42.479Z,490.5
2023-03-29T06:14:44.340Z,490.1
2023-03-29T06:15:46.179Z,490
2023-03-29T06:16:48.139Z,489.4
2023-03-29T06:17:50.258Z,489.9
2023-03-29T06:18:52.242Z,489.5
2023-03-29T06:19:54.094Z,489.6
2023-03-29T06:20:55.944Z,489
2023-03-29T06:21:57.821Z,489.2
2023-03-29T06:22:59.606Z,489.1
2023-03-29T06:24:01.997Z,488.6
2023-03-29T06:25:03.943Z,488.7
2023-03-29T06:26:05.735Z,489.1
2023-03-29T06:27:07.648Z,488.4
2023-03-29T06:28:09.508Z,488.6
2023-03-29T06:29:11.448Z,488.6
2023-03-29T06:30:13.412Z,488.1
2023-03-29T06:31:15.484Z,489.3
2023-03-29T06:32:17.322Z,488.7
2023-03-29T06:33:19.372Z,488
2023-03-29T06:34:21.571Z,488.3
2023-03-29T06:35:23.484Z,487.8
2023-03-29T06:36:25.436Z,487.8
2023-03-29T06:37:27.368Z,488.1
2023-03-29T06:38:29.431Z,487.8
2023-03-29T06:39:31.117Z,487.4
2023-03-29T06:40:33.364Z,487.2
2023-03-29T06:41:35.186Z,487.3
2023-03-29T06:42:36.841Z,487
2023-03-29T06:43:38.690Z,486.6
2023-03-29T06:44:40.488Z,486.5
2023-03-29T06:45:42.395Z,486.9
2023-03-29T06:46:44.355Z,486.4
2023-03-29T06:47:46.926Z,486.5
2023-03-29T06:48:48.857Z,486.2
2023-03-29T06:49:50.758Z,486.6
2023-03-29T06:50:52.660Z,485.8
2023-03-29T06:51:54.725Z,486.1
2023-03-29T06:52:56.518Z,486.2
2023-03-29T06:53:58.327Z,486
2023-03-29T06:55:00.068Z,486.5
2023-03-29T06:56:01.950Z,486.1
2023-03-29T06:57:03.799Z,486.8
2023-03-29T06:58:05.607Z,486.6
2023-03-29T06:59:07.471Z,486.5
2023-03-29T07:00:09.560Z,486.5
2023-03-29T07:01:11.886Z,487
2023-03-29T07:02:13.960Z,486.9
2023-03-29T07:03:16.071Z,487.1
2023-03-29T07:04:18.518Z,487.6
2023-03-29T07:05:20.420Z,487.5
2023-03-29T07:06:22.292Z,487.6
2023-03-29T07:07:24.120Z,487.9
2023-03-29T07:08:25.984Z,487.9
2023-03-29T07:09:27.827Z,488
2023-03-29T07:10:29.690Z,488.3
2023-03-29T07:11:31.419Z,488.4
2023-03-29T07:12:33.249Z,488
2023-03-29T07:13:35.408Z,488.1
2023-03-29T07:14:37.367Z,488.1
2023-03-29T07:15:39.118Z,488.5
2023-03-29T07:16:41.644Z,489
2023-03-29T07:17:43.562Z,488.8
2023-03-29T07:18:45.574Z,488.3
2023-03-29T07:19:47.473Z,488.6
2023-03-29T07:20:49.392Z,488.2
2023-03-29T07:21:51.476Z,487.9
2023-03-29T07:22:53.188Z,488.3
2023-03-29T07:23:55.068Z,487.8
2023-03-29T07:24:57.110Z,487.4
2023-03-29T07:25:58.880Z,487.5
2023-03-29T07:27:05.503Z,488
2023-03-29T07:28:07.225Z,487.7
2023-03-29T07:29:09.103Z,488.3
2023-03-29T07:30:11.482Z,488.4
2023-03-29T07:31:13.621Z,488.5
2023-03-29T07:32:15.613Z,487.8
2023-03-29T07:33:17.988Z,488.3
2023-03-29T07:34:19.894Z,487.6
2023-03-29T07:35:21.745Z,488.2
2023-03-29T07:36:23.698Z,488
2023-03-29T07:37:25.642Z,488.2
2023-03-29T07:38:27.517Z,488.6
2023-03-29T07:39:29.584Z,488.4
2023-03-29T07:40:31.503Z,488.9
2023-03-29T07:41:33.378Z,488.8
2023-03-29T07:42:35.297Z,487.9
2023-03-29T07:43:37.163Z,488.3
2023-03-29T07:44:39.422Z,488.5
2023-03-29T07:45:41.618Z,489
2023-03-29T07:46:43.906Z,488.4
2023-03-29T07:47:46.015Z,488.7
2023-03-29T07:48:48.068Z,488.4
2023-03-29T07:49:50.214Z,489.4
2023-03-29T07:50:52.527Z,488.7
2023-03-29T07:51:54.505Z,488.9
2023-03-29T07:52:56.483Z,489.2
2023-03-29T07:53:58.426Z,489.4
2023-03-29T07:55:00.304Z,488.8
2023-03-29T07:56:02.123Z,489.5
2023-03-29T07:57:04.147Z,489.8
2023-03-29T07:58:05.854Z,490.1
2023-03-29T07:59:07.584Z,489.6
2023-03-29T08:00:09.424Z,489.6
2023-03-29T08:01:20.061Z,489.8
2023-03-29T08:02:21.801Z,490.2
2023-03-29T08:03:24.061Z,490.5
2023-03-29T08:04:26.199Z,490.6
2023-03-29T08:05:42.700Z,490.6
2023-03-29T08:06:44.573Z,490.5
2023-03-29T08:07:46.432Z,491
2023-03-29T08:08:48.268Z,490.4
2023-03-29T08:09:50.329Z,490.1
2023-03-29T08:10:52.247Z,491.1
2023-03-29T08:11:54.445Z,490.9
2023-03-29T08:12:56.162Z,491
2023-03-29T08:13:58.040Z,490.8
2023-03-29T08:14:59.920Z,490.9
2023-03-29T08:16:01.752Z,490.9
2023-03-29T08:17:03.884Z,490.4
2023-03-29T08:18:06.008Z,491.3
2023-03-29T08:19:07.909Z,491.8
2023-03-29T08:20:09.790Z,491.5
2023-03-29T08:21:11.718Z,492.1
2023-03-29T08:22:13.769Z,491.8
2023-03-29T08:23:15.714Z,491.7
2023-03-29T08:24:21.541Z,491.7
2023-03-29T08:25:23.285Z,491.8
2023-03-29T08:26:25.410Z,491.5
2023-03-29T08:27:27.332Z,491.8
2023-03-29T08:28:29.064Z,491.4
2023-03-29T08:29:30.918Z,491.6
2023-03-29T08:30:32.770Z,491.5
2023-03-29T08:31:35.077Z,491.7
2023-03-29T08:32:37.296Z,491.4
2023-03-29T08:33:39.138Z,491.7
2023-03-29T08:34:40.994Z,491
2023-03-29T08:35:43.124Z,491.7
2023-03-29T08:36:44.989Z,491.4
2023-03-29T08:37:46.942Z,491.1
2023-03-29T08:38:48.666Z,491.7
2023-03-29T08:39:50.438Z,491.6
2023-03-29T08:40:52.257Z,491.9
2023-03-29T08:41:54.158Z,491.4
2023-03-29T08:42:55.986Z,491.5
2023-03-29T08:43:57.737Z,491.4
2023-03-29T08:44:59.587Z,491.8
2023-03-29T08:46:01.783Z,491.5
2023-03-29T08:47:04.035Z,491.6
2023-03-29T08:48:06.114Z,491.3
2023-03-29T08:49:08.018Z,491.6
2023-03-29T08:50:09.857Z,491.5
2023-03-29T08:51:11.821Z,491.4
2023-03-29T08:52:13.776Z,491
2023-03-29T08:53:15.691Z,491.8
2023-03-29T08:54:17.508Z,491.3
2023-03-29T08:55:19.315Z,492.3
2023-03-29T08:56:21.087Z,491.6
2023-03-29T08:57:23.269Z,491.9
2023-03-29T08:58:25.268Z,492.5
2023-03-29T08:59:27.116Z,492.4
2023-03-29T09:00:28.980Z,492.5
2023-03-29T09:01:30.810Z,493.2
2023-03-29T09:02:33.091Z,492.1
2023-03-29T09:03:35.315Z,492.7
2023-03-29T09:04:37.301Z,492.3
2023-03-29T09:05:39.248Z,492.6
2023-03-29T09:06:41.221Z,492.9
2023-03-29T09:07:42.986Z,492.5
2023-03-29T09:08:44.834Z,492.6
2023-03-29T09:09:46.675Z,493.1
2023-03-29T09:10:48.590Z,493
2023-03-29T09:11:50.347Z,492.2
2023-03-29T09:12:52.653Z,493.1
2023-03-29T09:13:54.655Z,493
2023-03-29T09:14:56.406Z,492.9
2023-03-29T09:15:58.613Z,494
2023-03-29T09:17:00.268Z,493.3
2023-03-29T09:18:02.304Z,493.1
2023-03-29T09:19:04.223Z,493
2023-03-29T09:20:06.379Z,493.7
2023-03-29T09:21:08.425Z,493.7
2023-03-29T09:22:10.180Z,493.5
2023-03-29T09:23:12.031Z,492.7
2023-03-29T09:24:13.870Z,492.6
2023-03-29T09:25:15.566Z,493.7
2023-03-29T09:26:17.383Z,493.6
2023-03-29T09:27:19.221Z,494.5
2023-03-29T09:28:21.238Z,493.6
2023-03-29T09:29:23.227Z,495.2
2023-03-29T09:30:24.885Z,493.9
2023-03-29T09:31:27.039Z,493.7
2023-03-29T09:32:28.993Z,493.8
2023-03-29T09:33:30.860Z,494.3
2023-03-29T09:34:32.788Z,494.5
2023-03-29T09:35:34.647Z,494.6
2023-03-29T09:36:36.600Z,494.1
2023-03-29T09:37:38.437Z,493.6
2023-03-29T09:38:40.396Z,494.9
2023-03-29T09:39:42.146Z,494.8
2023-03-29T09:40:44.021Z,495.1
2023-03-29T09:41:45.938Z,495.2
2023-03-29T09:42:47.798Z,494.9
2023-03-29T09:43:49.716Z,493.8
2023-03-29T09:44:51.487Z,495
2023-03-29T09:45:53.486Z,494.9
2023-03-29T09:46:55.489Z,494.6
2023-03-29T09:47:57.742Z,495.1
2023-03-29T09:48:59.813Z,495.8
2023-03-29T09:50:01.771Z,495.3
2023-03-29T09:51:04.947Z,494.8
2023-03-29T09:52:07.007Z,495.1
2023-03-29T09:53:08.867Z,494.6
2023-03-29T09:54:10.700Z,495.7
2023-03-29T09:55:13.074Z,495.5
2023-03-29T09:56:15.216Z,495.4
2023-03-29T09:57:17.208Z,494.1
2023-03-29T09:58:19.133Z,495.2
2023-03-29T09:59:20.947Z,495.7
2023-03-29T10:00:23.149Z,495.5
2023-03-29T10:01:25.125Z,495.8
2023-03-29T10:02:27.886Z,495.6
2023-03-29T10:03:29.934Z,495.7
2023-03-29T10:04:31.890Z,496.2
2023-03-29T10:05:33.830Z,494.3
2023-03-29T10:06:35.631Z,494.9
2023-03-29T10:07:37.419Z,494.6
2023-03-29T10:08:39.260Z,495.5
2023-03-29T10:09:41.625Z,494.5
2023-03-29T10:10:44.393Z,494.6
2023-03-29T10:11:46.154Z,495
2023-03-29T10:12:47.991Z,495.3
2023-03-29T10:13:49.742Z,495.5
2023-03-29T10:14:54.675Z,496.1
2023-03-29T10:15:56.584Z,496.2
2023-03-29T10:16:58.784Z,495.7
2023-03-29T10:18:00.903Z,496.1
2023-03-29T10:19:02.784Z,495.7
2023-03-29T10:20:08.178Z,495.4
2023-03-29T10:21:11.038Z,495.5
2023-03-29T10:22:12.940Z,495.5
2023-03-29T10:23:14.683Z,496
2023-03-29T10:24:16.446Z,495.8
2023-03-29T10:25:18.305Z,496
2023-03-29T10:26:20.244Z,495.7
2023-03-29T10:27:22.089Z,495.6
2023-03-29T10:28:23.935Z,495.1
2023-03-29T10:29:25.784Z,495.2
2023-03-29T10:30:27.670Z,495.8
2023-03-29T10:31:29.761Z,495.3
2023-03-29T10:32:32.033Z,496.2
2023-03-29T10:33:33.938Z,495.8
2023-03-29T10:34:35.858Z,495.5
2023-03-29T10:35:37.774Z,495.7
2023-03-29T10:36:39.666Z,496.4
2023-03-29T10:37:41.607Z,496.2
2023-03-29T10:38:43.562Z,496.2
2023-03-29T10:39:45.393Z,495.9
2023-03-29T10:40:47.779Z,496
2023-03-29T10:41:49.476Z,496.1
2023-03-29T10:42:51.271Z,496.5
2023-03-29T10:43:53.165Z,496.6
2023-03-29T10:44:55.085Z,496.1
2023-03-29T10:45:57.378Z,496.3
2023-03-29T10:46:59.292Z,496.3
2023-03-29T10:48:01.410Z,496.6
2023-03-29T10:49:03.297Z,497.1
2023-03-29T10:50:05.138Z,495.7
2023-03-29T10:51:06.880Z,496.1
2023-03-29T10:52:09.173Z,496.7
2023-03-29T10:53:11.104Z,497.1
2023-03-29T10:54:12.964Z,498.1
2023-03-29T10:55:14.809Z,497.4
2023-03-29T10:56:16.657Z,498.6
2023-03-29T10:57:23.104Z,497.1
2023-03-29T10:58:24.968Z,497.4
2023-03-29T10:59:26.918Z,497.6
2023-03-29T11:00:28.677Z,498.3
2023-03-29T11:01:31.606Z,498.1
2023-03-29T11:02:34.227Z,497.8
2023-03-29T11:03:36.404Z,499.3
2023-03-29T11:04:38.259Z,498.7
2023-03-29T11:05:40.058Z,499.3
2023-03-29T11:06:41.813Z,499.4
2023-03-29T11:07:43.731Z,499
2023-03-29T11:08:45.545Z,499.8
2023-03-29T11:09:47.407Z,498.6
2023-03-29T11:10:49.306Z,499.4
2023-03-29T11:12:16.594Z,499.5
2023-03-29T11:13:18.611Z,499.2
2023-03-29T11:14:20.368Z,499.7
2023-03-29T11:15:22.223Z,500.1
2023-03-29T11:16:24.228Z,500.5
2023-03-29T11:17:26.365Z,500.4
2023-03-29T11:18:28.177Z,500.3
2023-03-29T11:19:30.010Z,500.7
2023-03-29T11:20:31.975Z,499.9
2023-03-29T11:21:33.835Z,500.3
2023-03-29T11:22:35.615Z,500.2
2023-03-29T11:23:37.626Z,500.3
2023-03-29T11:24:39.471Z,500.3
2023-03-29T11:25:41.320Z,500.9
2023-03-29T11:26:43.269Z,501
2023-03-29T11:27:45.020Z,500.5
2023-03-29T11:28:49.750Z,501.5
2023-03-29T11:29:51.495Z,501.5
2023-03-29T11:30:53.573Z,501.3
2023-03-29T11:31:55.742Z,500.5
2023-03-29T11:32:58.002Z,499.8
2023-03-29T11:34:00.357Z,500.6
2023-03-29T11:35:02.190Z,501.2
2023-03-29T11:36:04.058Z,500.6
2023-03-29T11:37:05.878Z,500.9
2023-03-29T11:38:07.754Z,500.9
2023-03-29T11:39:09.608Z,501.1
2023-03-29T11:40:11.790Z,500.6
2023-03-29T11:41:13.689Z,500.7
2023-03-29T11:42:15.530Z,501
2023-03-29T11:43:17.389Z,500.8
2023-03-29T11:44:19.172Z,500.6
2023-03-29T11:45:20.887Z,499.3
2023-03-29T11:46:23.060Z,500.7
2023-03-29T11:47:24.915Z,500
2023-03-29T11:48:26.921Z,500.2
2023-03-29T11:49:28.970Z,499.2
2023-03-29T11:50:30.846Z,500.9
2023-03-29T11:51:32.812Z,501.5
2023-03-29T11:52:34.654Z,501.7
2023-03-29T11:53:36.377Z,500.7
2023-03-29T11:54:38.265Z,500.2
2023-03-29T11:55:40.124Z,502
2023-03-29T11:56:42.113Z,500.5
2023-03-29T11:57:43.899Z,501.1
2023-03-29T11:58:45.650Z,501
2023-03-29T11:59:47.388Z,501.6
2023-03-29T12:00:49.344Z,502.1
2023-03-29T12:01:51.284Z,501.5
2023-03-29T12:02:53.641Z,501.6
2023-03-29T12:03:56.096Z,502.1
2023-03-29T12:04:58.085Z,501.9
2023-03-29T12:05:59.863Z,501.4
2023-03-29T12:07:02.315Z,501.8
2023-03-29T12:08:04.142Z,501.5
2023-03-29T12:09:06.113Z,502.4
2023-03-29T12:10:08.045Z,502.5
2023-03-29T12:11:09.996Z,502.5
2023-03-29T12:12:11.784Z,503.1
2023-03-29T12:13:13.592Z,502.5
2023-03-29T12:14:15.448Z,502.2
2023-03-29T12:15:17.287Z,502.5
2023-03-29T12:16:19.297Z,502.6
2023-03-29T12:17:21.109Z,502.5
2023-03-29T12:18:22.970Z,501.9
2023-03-29T12:19:24.934Z,501.5
2023-03-29T12:20:26.867Z,501.6
2023-03-29T12:21:28.807Z,501.9
2023-03-29T12:22:30.660Z,501.4
2023-03-29T12:23:32.522Z,501.8
2023-03-29T12:24:34.228Z,501.2
2023-03-29T12:25:36.209Z,501
2023-03-29T12:26:37.953Z,501.2
2023-03-29T12:27:39.798Z,501.4
2023-03-29T12:28:41.834Z,501.4
2023-03-29T12:29:43.725Z,501.7
2023-03-29T12:30:45.428Z,501.7
2023-03-29T12:31:47.291Z,502.3
2023-03-29T12:32:49.134Z,501.2
2023-03-29T12:33:51.089Z,502.1
2023-03-29T12:34:52.991Z,500.9
2023-03-29T12:35:55.054Z,500.8
2023-03-29T12:36:56.969Z,501.6
2023-03-29T12:37:58.900Z,500.7
2023-03-29T12:39:00.777Z,500.7
2023-03-29T12:40:02.723Z,501.7
2023-03-29T12:41:05.558Z,501.6
2023-03-29T12:42:08.259Z,501
2023-03-29T12:43:10.610Z,501.7
2023-03-29T12:44:12.483Z,501.7
2023-03-29T12:45:14.322Z,501.7
2023-03-29T12:46:16.584Z,502.4
2023-03-29T12:47:18.534Z,502.4
2023-03-29T12:48:20.342Z,502.7
2023-03-29T12:49:22.160Z,503
2023-03-29T12:50:24.365Z,502.3
2023-03-29T12:51:26.262Z,502.6
2023-03-29T12:52:28.204Z,502.2
2023-03-29T12:53:30.060Z,502.2
2023-03-29T12:54:32.016Z,502
2023-03-29T12:55:33.850Z,502.1
2023-03-29T12:56:35.709Z,502.6
2023-03-29T12:57:37.575Z,502.6
2023-03-29T12:58:39.728Z,502.9
2023-03-29T12:59:41.591Z,502.6
2023-03-29T13:00:43.730Z,503
2023-03-29T13:01:46.181Z,502.6
2023-03-29T13:02:48.312Z,502.8
2023-03-29T13:03:50.182Z,502.9
2023-03-29T13:04:52.303Z,502.9
2023-03-29T13:05:54.258Z,502.5
2023-03-29T13:06:56.257Z,502.8
2023-03-29T13:07:58.064Z,503
2023-03-29T13:08:59.748Z,502.1
2023-03-29T13:10:01.596Z,503.2
2023-03-29T13:11:03.552Z,501.8
2023-03-29T13:12:05.347Z,502.7
2023-03-29T13:13:07.142Z,502.6
2023-03-29T13:14:08.935Z,502.6
2023-03-29T13:15:10.740Z,502.8
2023-03-29T13:16:13.167Z,502.5
2023-03-29T13:17:19.893Z,502.3
2023-03-29T13:18:21.675Z,503
2023-03-29T13:19:23.671Z,502.6
2023-03-29T13:20:25.522Z,502.2
2023-03-29T13:21:27.450Z,502.5
2023-03-29T13:22:29.230Z,502.4
2023-03-29T13:23:31.075Z,502.3
2023-03-29T13:24:32.923Z,502.6